Terminal Aerodrome Forecast
Issued by NWS

Home | Current Version | Previous Version | Text Only | Print | Product List | Glossary On
Versions: 1 2 3 4 5 6 7 8 9 10 11 12 13 14 15 16 17
321
FTUS43 KDLH 230737 AAA
TAFHYR
TAF AMD
KHYR 230737Z 2308/2406 00000KT 1SM BR SKC
      TEMPO 2308/2311 1/4SM FG VV002
     FM231100 23004KT 1 1/2SM BR SCT003
      TEMPO 2311/2312 1/2SM FG
     FM231200 23004KT P6SM SCT040
     FM231400 28007KT P6SM BKN035
     FM231700 29010KT P6SM BKN035
     FM232000 28010G17KT P6SM BKN040=

USA.gov is the U.S. government's official web portal to all federal, state and local government web resources and services.